sensor_id;sensor_type;location;lat;lon;timestamp;pressure;altitude;pressure_sealevel;temperature;humidity
18275;BME280;19470;49.322;7.218;2023-05-24T00:00:18;99164.09;;;14.72;100.00
18275;BME280;19470;49.322;7.218;2023-05-24T00:02:46;99161.06;;;14.58;100.00
18275;BME280;19470;49.322;7.218;2023-05-24T00:05:12;99154.97;;;14.68;100.00
18275;BME280;19470;49.322;7.218;2023-05-24T00:07:41;99156.41;;;14.80;100.00
18275;BME280;19470;49.322;7.218;2023-05-24T00:10:10;99155.25;;;14.66;100.00
18275;BME280;19470;49.322;7.218;2023-05-24T00:12:37;99154.28;;;14.45;100.00
18275;BME280;19470;49.322;7.218;2023-05-24T00:15:04;99153.81;;;14.21;100.00
18275;BME280;19470;49.322;7.218;2023-05-24T00:17:30;99151.91;;;14.17;100.00
18275;BME280;19470;49.322;7.218;2023-05-24T00:19:58;99148.91;;;14.40;100.00
18275;BME280;19470;49.322;7.218;2023-05-24T00:25:48;99138.84;;;14.15;100.00
18275;BME280;19470;49.322;7.218;2023-05-24T00:28:15;99140.34;;;14.06;100.00
18275;BME280;19470;49.322;7.218;2023-05-24T00:30:41;99138.88;;;14.20;100.00
18275;BME280;19470;49.322;7.218;2023-05-24T00:33:08;99136.81;;;14.27;100.00
18275;BME280;19470;49.322;7.218;2023-05-24T00:35:34;99127.00;;;14.01;100.00
18275;BME280;19470;49.322;7.218;2023-05-24T00:38:03;99130.06;;;13.88;100.00
18275;BME280;19470;49.322;7.218;2023-05-24T00:40:29;99123.41;;;13.85;100.00
18275;BME280;19470;49.322;7.218;2023-05-24T00:42:57;99125.22;;;13.79;100.00
18275;BME280;19470;49.322;7.218;2023-05-24T00:45:24;99127.19;;;13.67;100.00
18275;BME280;19470;49.322;7.218;2023-05-24T00:47:50;99121.69;;;13.47;100.00
18275;BME280;19470;49.322;7.218;2023-05-24T00:50:17;99121.38;;;13.43;100.00
18275;BME280;19470;49.322;7.218;2023-05-24T00:52:46;99113.94;;;13.45;100.00
18275;BME280;19470;49.322;7.218;2023-05-24T00:55:13;99119.94;;;13.36;100.00
18275;BME280;19470;49.322;7.218;2023-05-24T00:57:39;99115.34;;;13.31;100.00
18275;BME280;19470;49.322;7.218;2023-05-24T01:00:09;99121.28;;;13.16;100.00
18275;BME280;19470;49.322;7.218;2023-05-24T01:02:36;99120.72;;;13.14;100.00
18275;BME280;19470;49.322;7.218;2023-05-24T01:05:03;99118.69;;;13.21;100.00
18275;BME280;19470;49.322;7.218;2023-05-24T01:07:36;99114.22;;;13.49;100.00
18275;BME280;19470;49.322;7.218;2023-05-24T01:10:13;99120.97;;;13.57;100.00
18275;BME280;19470;49.322;7.218;2023-05-24T01:12:50;99122.78;;;13.29;100.00
18275;BME280;19470;49.322;7.218;2023-05-24T01:15:23;99126.81;;;13.32;100.00
18275;BME280;19470;49.322;7.218;2023-05-24T01:17:53;99131.38;;;13.14;100.00
18275;BME280;19470;49.322;7.218;2023-05-24T01:20:27;99134.44;;;13.06;100.00
18275;BME280;19470;49.322;7.218;2023-05-24T01:23:20;99136.63;;;13.09;100.00
18275;BME280;19470;49.322;7.218;2023-05-24T01:26:05;99138.34;;;13.20;100.00
18275;BME280;19470;49.322;7.218;2023-05-24T01:28:35;99139.75;;;13.23;100.00
18275;BME280;19470;49.322;7.218;2023-05-24T01:31:02;99134.50;;;13.11;100.00
18275;BME280;19470;49.322;7.218;2023-05-24T01:33:29;99138.56;;;12.97;100.00
18275;BME280;19470;49.322;7.218;2023-05-24T01:35:55;99139.75;;;13.06;100.00
18275;BME280;19470;49.322;7.218;2023-05-24T01:38:22;99147.56;;;13.13;100.00
18275;BME280;19470;49.322;7.218;2023-05-24T01:40:51;99143.06;;;13.13;100.00
18275;BME280;19470;49.322;7.218;2023-05-24T01:43:27;99154.53;;;12.97;100.00
18275;BME280;19470;49.322;7.218;2023-05-24T01:46:02;99148.06;;;12.71;100.00
18275;BME280;19470;49.322;7.218;2023-05-24T01:48:37;99150.31;;;12.62;100.00
18275;BME280;19470;49.322;7.218;2023-05-24T01:51:08;99147.50;;;12.69;100.00
18275;BME280;19470;49.322;7.218;2023-05-24T01:53:40;99155.13;;;12.82;100.00
18275;BME280;19470;49.322;7.218;2023-05-24T01:56:10;99158.75;;;12.76;100.00
18275;BME280;19470;49.322;7.218;2023-05-24T01:58:40;99162.34;;;13.03;100.00
18275;BME280;19470;49.322;7.218;2023-05-24T02:01:08;99159.97;;;12.85;100.00
18275;BME280;19470;49.322;7.218;2023-05-24T02:03:35;99154.50;;;12.58;100.00
18275;BME280;19470;49.322;7.218;2023-05-24T02:06:03;99161.81;;;12.85;100.00
18275;BME280;19470;49.322;7.218;2023-05-24T02:08:30;99153.19;;;12.77;100.00
18275;BME280;19470;49.322;7.218;2023-05-24T02:10:56;99163.34;;;12.64;100.00
18275;BME280;19470;49.322;7.218;2023-05-24T02:13:23;99154.72;;;12.73;100.00
18275;BME280;19470;49.322;7.218;2023-05-24T02:15:49;99154.88;;;12.84;100.00
18275;BME280;19470;49.322;7.218;2023-05-24T02:18:19;99166.63;;;12.88;100.00
18275;BME280;19470;49.322;7.218;2023-05-24T02:20:47;99155.53;;;12.91;100.00
18275;BME280;19470;49.322;7.218;2023-05-24T02:23:13;99161.31;;;12.88;100.00
18275;BME280;19470;49.322;7.218;2023-05-24T02:25:40;99166.09;;;12.69;100.00
18275;BME280;19470;49.322;7.218;2023-05-24T02:28:06;99158.44;;;12.56;100.00
18275;BME280;19470;49.322;7.218;2023-05-24T02:30:33;99161.13;;;12.39;100.00
18275;BME280;19470;49.322;7.218;2023-05-24T02:32:59;99162.81;;;12.28;100.00
18275;BME280;19470;49.322;7.218;2023-05-24T02:35:27;99163.59;;;12.45;100.00
18275;BME280;19470;49.322;7.218;2023-05-24T02:37:54;99155.72;;;12.34;100.00
18275;BME280;19470;49.322;7.218;2023-05-24T02:40:22;99152.97;;;12.62;100.00
18275;BME280;19470;49.322;7.218;2023-05-24T02:42:49;99147.75;;;12.50;100.00
18275;BME280;19470;49.322;7.218;2023-05-24T02:45:15;99138.50;;;12.36;100.00
18275;BME280;19470;49.322;7.218;2023-05-24T02:47:42;99143.91;;;12.24;100.00
18275;BME280;19470;49.322;7.218;2023-05-24T02:50:09;99140.41;;;12.41;100.00
18275;BME280;19470;49.322;7.218;2023-05-24T02:52:37;99143.47;;;12.66;100.00
18275;BME280;19470;49.322;7.218;2023-05-24T02:55:04;99134.59;;;12.77;100.00
18275;BME280;19470;49.322;7.218;2023-05-24T02:57:31;99135.59;;;12.93;100.00
18275;BME280;19470;49.322;7.218;2023-05-24T02:59:58;99137.25;;;12.77;100.00
18275;BME280;19470;49.322;7.218;2023-05-24T03:02:25;99133.53;;;12.78;100.00
18275;BME280;19470;49.322;7.218;2023-05-24T03:04:52;99141.84;;;12.82;100.00
18275;BME280;19470;49.322;7.218;2023-05-24T03:07:19;99140.50;;;13.01;100.00
18275;BME280;19470;49.322;7.218;2023-05-24T03:09:47;99135.78;;;13.25;100.00
18275;BME280;19470;49.322;7.218;2023-05-24T03:12:14;99139.22;;;13.04;100.00
18275;BME280;19470;49.322;7.218;2023-05-24T03:14:40;99137.47;;;12.93;100.00
18275;BME280;19470;49.322;7.218;2023-05-24T03:17:07;99135.97;;;13.02;100.00
18275;BME280;19470;49.322;7.218;2023-05-24T03:19:33;99137.72;;;12.91;100.00
18275;BME280;19470;49.322;7.218;2023-05-24T03:22:00;99137.13;;;12.50;100.00
18275;BME280;19470;49.322;7.218;2023-05-24T03:24:26;99137.19;;;12.72;100.00
18275;BME280;19470;49.322;7.218;2023-05-24T03:26:54;99141.44;;;13.12;100.00
18275;BME280;19470;49.322;7.218;2023-05-24T03:29:20;99145.38;;;12.88;100.00
18275;BME280;19470;49.322;7.218;2023-05-24T03:31:47;99141.22;;;12.97;100.00
18275;BME280;19470;49.322;7.218;2023-05-24T03:34:13;99140.88;;;13.10;100.00
18275;BME280;19470;49.322;7.218;2023-05-24T03:36:40;99148.66;;;13.17;100.00
18275;BME280;19470;49.322;7.218;2023-05-24T03:39:07;99149.66;;;13.27;100.00
18275;BME280;19470;49.322;7.218;2023-05-24T03:41:33;99151.25;;;13.28;100.00
18275;BME280;19470;49.322;7.218;2023-05-24T03:44:01;99152.25;;;13.22;100.00
18275;BME280;19470;49.322;7.218;2023-05-24T03:46:28;99158.75;;;13.32;100.00
18275;BME280;19470;49.322;7.218;2023-05-24T03:48:54;99152.25;;;13.22;100.00
18275;BME280;19470;49.322;7.218;2023-05-24T03:51:21;99161.63;;;12.91;100.00
18275;BME280;19470;49.322;7.218;2023-05-24T03:53:54;99158.47;;;12.39;100.00
18275;BME280;19470;49.322;7.218;2023-05-24T03:56:20;99161.81;;;12.68;100.00
18275;BME280;19470;49.322;7.218;2023-05-24T03:58:47;99157.13;;;12.92;100.00
18275;BME280;19470;49.322;7.218;2023-05-24T04:01:16;99164.88;;;12.76;100.00
18275;BME280;19470;49.322;7.218;2023-05-24T04:03:44;99163.97;;;12.88;100.00
18275;BME280;19470;49.322;7.218;2023-05-24T04:06:11;99168.09;;;13.17;100.00
18275;BME280;19470;49.322;7.218;2023-05-24T04:08:37;99170.94;;;13.11;100.00
18275;BME280;19470;49.322;7.218;2023-05-24T04:11:04;99170.41;;;12.92;100.00
18275;BME280;19470;49.322;7.218;2023-05-24T04:13:31;99170.66;;;12.90;100.00
18275;BME280;19470;49.322;7.218;2023-05-24T04:15:57;99168.97;;;12.84;100.00
18275;BME280;19470;49.322;7.218;2023-05-24T04:18:25;99174.16;;;12.40;100.00
18275;BME280;19470;49.322;7.218;2023-05-24T04:20:52;99170.53;;;12.30;100.00
18275;BME280;19470;49.322;7.218;2023-05-24T04:23:18;99176.50;;;12.53;100.00
18275;BME280;19470;49.322;7.218;2023-05-24T04:25:45;99176.66;;;12.81;100.00
18275;BME280;19470;49.322;7.218;2023-05-24T04:28:11;99181.38;;;12.78;100.00
18275;BME280;19470;49.322;7.218;2023-05-24T04:30:39;99177.91;;;12.95;100.00
18275;BME280;19470;49.322;7.218;2023-05-24T04:33:06;99180.19;;;12.86;100.00
18275;BME280;19470;49.322;7.218;2023-05-24T04:35:34;99177.78;;;12.68;100.00
18275;BME280;19470;49.322;7.218;2023-05-24T04:38:01;99178.38;;;12.92;100.00
18275;BME280;19470;49.322;7.218;2023-05-24T04:40:27;99162.16;;;13.10;100.00
18275;BME280;19470;49.322;7.218;2023-05-24T04:42:54;99169.19;;;13.21;100.00
18275;BME280;19470;49.322;7.218;2023-05-24T04:45:21;99168.41;;;13.21;100.00
18275;BME280;19470;49.322;7.218;2023-05-24T04:47:47;99172.09;;;13.59;100.00
18275;BME280;19470;49.322;7.218;2023-05-24T04:50:15;99164.88;;;13.32;100.00
18275;BME280;19470;49.322;7.218;2023-05-24T04:52:43;99170.53;;;13.41;100.00
18275;BME280;19470;49.322;7.218;2023-05-24T04:55:10;99171.97;;;13.48;100.00
18275;BME280;19470;49.322;7.218;2023-05-24T04:57:36;99170.38;;;13.47;100.00
18275;BME280;19470;49.322;7.218;2023-05-24T05:00:03;99167.28;;;13.34;100.00
18275;BME280;19470;49.322;7.218;2023-05-24T05:02:31;99165.09;;;13.74;100.00
18275;BME280;19470;49.322;7.218;2023-05-24T05:04:58;99162.72;;;13.78;100.00
18275;BME280;19470;49.322;7.218;2023-05-24T05:07:25;99160.31;;;13.76;100.00
18275;BME280;19470;49.322;7.218;2023-05-24T05:09:53;99157.59;;;13.49;100.00
18275;BME280;19470;49.322;7.218;2023-05-24T05:12:19;99163.13;;;13.92;100.00
18275;BME280;19470;49.322;7.218;2023-05-24T05:14:46;99159.34;;;14.15;99.11
18275;BME280;19470;49.322;7.218;2023-05-24T05:17:12;99164.94;;;14.13;98.42
18275;BME280;19470;49.322;7.218;2023-05-24T05:19:39;99163.31;;;14.44;94.70
18275;BME280;19470;49.322;7.218;2023-05-24T05:22:05;99164.66;;;14.15;91.29
18275;BME280;19470;49.322;7.218;2023-05-24T05:24:32;99159.94;;;14.22;92.60
18275;BME280;19470;49.322;7.218;2023-05-24T05:27:00;99169.09;;;14.31;94.60
18275;BME280;19470;49.322;7.218;2023-05-24T05:29:26;99172.56;;;14.31;93.79
18275;BME280;19470;49.322;7.218;2023-05-24T05:31:53;99174.97;;;14.65;91.17
18275;BME280;19470;49.322;7.218;2023-05-24T05:34:20;99171.25;;;14.66;88.07
18275;BME280;19470;49.322;7.218;2023-05-24T05:36:46;99161.75;;;14.80;89.12
18275;BME280;19470;49.322;7.218;2023-05-24T05:39:13;99170.34;;;14.50;87.42
18275;BME280;19470;49.322;7.218;2023-05-24T05:41:40;99169.41;;;15.14;85.29
18275;BME280;19470;49.322;7.218;2023-05-24T05:44:10;99172.06;;;14.72;85.50
18275;BME280;19470;49.322;7.218;2023-05-24T05:46:37;99169.91;;;15.06;84.92
18275;BME280;19470;49.322;7.218;2023-05-24T05:49:04;99181.50;;;15.32;83.91
18275;BME280;19470;49.322;7.218;2023-05-24T05:51:31;99176.84;;;14.65;82.19
18275;BME280;19470;49.322;7.218;2023-05-24T05:53:57;99171.38;;;14.87;80.11
18275;BME280;19470;49.322;7.218;2023-05-24T05:56:24;99181.69;;;15.15;81.99
18275;BME280;19470;49.322;7.218;2023-05-24T05:58:51;99175.97;;;15.44;79.55
18275;BME280;19470;49.322;7.218;2023-05-24T06:01:19;99184.78;;;15.54;81.21
18275;BME280;19470;49.322;7.218;2023-05-24T06:03:46;99184.00;;;15.59;78.05
18275;BME280;19470;49.322;7.218;2023-05-24T06:06:12;99187.56;;;15.75;78.62
18275;BME280;19470;49.322;7.218;2023-05-24T06:08:39;99188.41;;;15.91;75.46
18275;BME280;19470;49.322;7.218;2023-05-24T06:11:06;99187.53;;;15.70;76.44
18275;BME280;19470;49.322;7.218;2023-05-24T06:13:32;99185.59;;;15.55;75.05
18275;BME280;19470;49.322;7.218;2023-05-24T06:15:59;99176.66;;;15.81;74.20
18275;BME280;19470;49.322;7.218;2023-05-24T06:18:27;99186.34;;;15.40;77.31
18275;BME280;19470;49.322;7.218;2023-05-24T06:20:54;99187.13;;;15.36;77.74
18275;BME280;19470;49.322;7.218;2023-05-24T06:23:21;99187.66;;;15.38;77.83
18275;BME280;19470;49.322;7.218;2023-05-24T06:25:47;99194.81;;;15.90;74.83
18275;BME280;19470;49.322;7.218;2023-05-24T06:28:14;99191.63;;;16.03;75.65
18275;BME280;19470;49.322;7.218;2023-05-24T06:30:41;99192.56;;;15.61;75.66
18275;BME280;19470;49.322;7.218;2023-05-24T06:33:07;99185.47;;;15.92;72.81
18275;BME280;19470;49.322;7.218;2023-05-24T06:35:35;99187.38;;;16.32;72.33
18275;BME280;19470;49.322;7.218;2023-05-24T06:38:02;99195.94;;;16.60;72.35
18275;BME280;19470;49.322;7.218;2023-05-24T06:40:28;99187.41;;;16.73;69.29
18275;BME280;19470;49.322;7.218;2023-05-24T06:42:55;99192.75;;;16.43;70.51
18275;BME280;19470;49.322;7.218;2023-05-24T06:45:22;99192.22;;;16.92;69.58
18275;BME280;19470;49.322;7.218;2023-05-24T06:47:49;99195.09;;;17.16;72.68
18275;BME280;19470;49.322;7.218;2023-05-24T06:50:15;99193.53;;;16.64;70.85
18275;BME280;19470;49.322;7.218;2023-05-24T06:52:44;99196.84;;;17.56;67.66
18275;BME280;19470;49.322;7.218;2023-05-24T06:55:10;99197.00;;;17.05;67.88
18275;BME280;19470;49.322;7.218;2023-05-24T06:57:36;99201.03;;;16.97;67.63
18275;BME280;19470;49.322;7.218;2023-05-24T07:00:04;99201.31;;;16.91;70.28
18275;BME280;19470;49.322;7.218;2023-05-24T07:02:34;99207.09;;;17.33;68.43
18275;BME280;19470;49.322;7.218;2023-05-24T07:05:00;99204.94;;;17.30;67.09
18275;BME280;19470;49.322;7.218;2023-05-24T07:07:27;99199.34;;;17.32;68.38
18275;BME280;19470;49.322;7.218;2023-05-24T07:09:54;99203.28;;;17.45;66.22
18275;BME280;19470;49.322;7.218;2023-05-24T07:12:21;99203.78;;;17.62;66.12
18275;BME280;19470;49.322;7.218;2023-05-24T07:14:48;99210.34;;;17.15;66.48
18275;BME280;19470;49.322;7.218;2023-05-24T07:17:15;99218.72;;;17.68;65.53
18275;BME280;19470;49.322;7.218;2023-05-24T07:19:42;99213.38;;;17.73;62.79
18275;BME280;19470;49.322;7.218;2023-05-24T07:22:08;99219.69;;;18.03;65.00
18275;BME280;19470;49.322;7.218;2023-05-24T07:24:35;99218.63;;;17.99;65.20
18275;BME280;19470;49.322;7.218;2023-05-24T07:27:03;99226.63;;;18.82;64.70
18275;BME280;19470;49.322;7.218;2023-05-24T07:29:30;99230.00;;;17.75;60.47
18275;BME280;19470;49.322;7.218;2023-05-24T07:31:56;99225.28;;;18.46;58.84
18275;BME280;19470;49.322;7.218;2023-05-24T07:34:23;99225.06;;;17.98;64.08
18275;BME280;19470;49.322;7.218;2023-05-24T07:36:51;99226.63;;;18.04;62.29
18275;BME280;19470;49.322;7.218;2023-05-24T07:39:18;99222.50;;;19.19;59.12
18275;BME280;19470;49.322;7.218;2023-05-24T07:41:44;99217.78;;;19.11;57.95
18275;BME280;19470;49.322;7.218;2023-05-24T07:44:12;99219.00;;;19.42;58.27
18275;BME280;19470;49.322;7.218;2023-05-24T07:46:39;99233.66;;;18.78;57.76
18275;BME280;19470;49.322;7.218;2023-05-24T07:49:05;99223.19;;;19.78;56.61
18275;BME280;19470;49.322;7.218;2023-05-24T07:51:32;99224.25;;;19.05;50.04
18275;BME280;19470;49.322;7.218;2023-05-24T07:53:59;99221.22;;;19.64;50.95
18275;BME280;19470;49.322;7.218;2023-05-24T07:56:25;99226.09;;;19.33;52.04
18275;BME280;19470;49.322;7.218;2023-05-24T07:58:52;99227.53;;;19.50;49.98
18275;BME280;19470;49.322;7.218;2023-05-24T08:01:24;99231.34;;;20.29;48.41
18275;BME280;19470;49.322;7.218;2023-05-24T08:03:51;99233.41;;;20.37;47.78
18275;BME280;19470;49.322;7.218;2023-05-24T08:06:17;99224.63;;;19.22;52.55
18275;BME280;19470;49.322;7.218;2023-05-24T08:08:44;99220.81;;;18.99;50.88
18275;BME280;19470;49.322;7.218;2023-05-24T08:11:11;99223.28;;;18.27;50.63
18275;BME280;19470;49.322;7.218;2023-05-24T08:13:38;99227.00;;;19.96;49.32
18275;BME280;19470;49.322;7.218;2023-05-24T08:16:04;99223.34;;;19.14;49.50
18275;BME280;19470;49.322;7.218;2023-05-24T08:18:33;99228.50;;;19.83;50.14
18275;BME280;19470;49.322;7.218;2023-05-24T08:21:00;99223.97;;;20.73;49.46
18275;BME280;19470;49.322;7.218;2023-05-24T08:23:26;99228.88;;;21.44;46.91
18275;BME280;19470;49.322;7.218;2023-05-24T08:25:54;99223.59;;;21.53;43.37
18275;BME280;19470;49.322;7.218;2023-05-24T08:28:20;99223.81;;;20.97;44.83
18275;BME280;19470;49.322;7.218;2023-05-24T08:30:47;99226.84;;;20.43;46.88
18275;BME280;19470;49.322;7.218;2023-05-24T08:33:13;99228.13;;;20.65;49.44
18275;BME280;19470;49.322;7.218;2023-05-24T08:35:42;99217.63;;;21.42;44.49
18275;BME280;19470;49.322;7.218;2023-05-24T08:38:08;99217.78;;;20.72;46.49
18275;BME280;19470;49.322;7.218;2023-05-24T08:40:35;99215.56;;;20.41;45.52
18275;BME280;19470;49.322;7.218;2023-05-24T08:43:01;99222.09;;;21.33;50.39
18275;BME280;19470;49.322;7.218;2023-05-24T08:45:29;99215.72;;;19.94;45.12
18275;BME280;19470;49.322;7.218;2023-05-24T08:47:56;99219.91;;;20.75;45.52
18275;BME280;19470;49.322;7.218;2023-05-24T08:50:23;99217.03;;;20.15;46.01
18275;BME280;19470;49.322;7.218;2023-05-24T08:52:53;99218.38;;;20.69;44.45
18275;BME280;19470;49.322;7.218;2023-05-24T08:55:20;99222.66;;;21.30;45.59
18275;BME280;19470;49.322;7.218;2023-05-24T08:57:47;99222.91;;;21.48;43.72
18275;BME280;19470;49.322;7.218;2023-05-24T09:00:14;99223.06;;;20.45;43.18
18275;BME280;19470;49.322;7.218;2023-05-24T09:02:42;99233.16;;;20.72;44.83
18275;BME280;19470;49.322;7.218;2023-05-24T09:05:11;99224.38;;;21.67;41.39
18275;BME280;19470;49.322;7.218;2023-05-24T09:07:39;99219.97;;;21.72;42.58
18275;BME280;19470;49.322;7.218;2023-05-24T09:10:08;99220.84;;;21.94;40.32
18275;BME280;19470;49.322;7.218;2023-05-24T09:12:36;99225.19;;;22.85;40.56
18275;BME280;19470;49.322;7.218;2023-05-24T09:15:04;99233.78;;;22.06;39.64
18275;BME280;19470;49.322;7.218;2023-05-24T09:17:31;99222.63;;;21.99;37.69
18275;BME280;19470;49.322;7.218;2023-05-24T09:19:57;99223.91;;;22.02;41.16
18275;BME280;19470;49.322;7.218;2023-05-24T09:22:25;99220.72;;;22.81;40.05
18275;BME280;19470;49.322;7.218;2023-05-24T09:24:56;99225.28;;;22.94;37.88
18275;BME280;19470;49.322;7.218;2023-05-24T09:27:25;99216.06;;;23.26;35.96
18275;BME280;19470;49.322;7.218;2023-05-24T09:29:52;99212.28;;;23.05;39.93
18275;BME280;19470;49.322;7.218;2023-05-24T09:32:22;99210.41;;;23.54;36.95
18275;BME280;19470;49.322;7.218;2023-05-24T09:34:50;99213.19;;;23.71;40.74
18275;BME280;19470;49.322;7.218;2023-05-24T09:37:18;99212.88;;;23.90;37.66
18275;BME280;19470;49.322;7.218;2023-05-24T09:39:46;99207.47;;;22.70;39.15
18275;BME280;19470;49.322;7.218;2023-05-24T09:42:14;99200.34;;;23.37;39.13
18275;BME280;19470;49.322;7.218;2023-05-24T09:44:43;99196.97;;;23.80;36.25
18275;BME280;19470;49.322;7.218;2023-05-24T09:47:11;99198.94;;;22.77;36.78
18275;BME280;19470;49.322;7.218;2023-05-24T09:49:38;99193.59;;;23.17;36.61
18275;BME280;19470;49.322;7.218;2023-05-24T09:52:04;99181.56;;;24.23;36.61
18275;BME280;19470;49.322;7.218;2023-05-24T09:54:31;99192.44;;;23.49;39.61
18275;BME280;19470;49.322;7.218;2023-05-24T09:56:59;99187.66;;;22.98;37.65
18275;BME280;19470;49.322;7.218;2023-05-24T09:59:26;99183.63;;;24.18;34.39
18275;BME280;19470;49.322;7.218;2023-05-24T10:02:06;99193.03;;;24.29;38.18
18275;BME280;19470;49.322;7.218;2023-05-24T10:04:34;99191.59;;;23.31;39.82
18275;BME280;19470;49.322;7.218;2023-05-24T10:07:01;99183.84;;;23.47;33.71
18275;BME280;19470;49.322;7.218;2023-05-24T10:09:29;99181.06;;;23.21;36.06
18275;BME280;19470;49.322;7.218;2023-05-24T10:12:00;99176.88;;;23.63;35.26
18275;BME280;19470;49.322;7.218;2023-05-24T10:14:30;99184.09;;;25.02;36.10
18275;BME280;19470;49.322;7.218;2023-05-24T10:16:59;99174.75;;;22.72;38.42
18275;BME280;19470;49.322;7.218;2023-05-24T10:19:25;99168.19;;;25.38;37.04
18275;BME280;19470;49.322;7.218;2023-05-24T10:21:52;99172.16;;;23.86;38.07
18275;BME280;19470;49.322;7.218;2023-05-24T10:24:25;99155.59;;;24.57;37.18
18275;BME280;19470;49.322;7.218;2023-05-24T10:26:55;99166.31;;;24.83;38.27
18275;BME280;19470;49.322;7.218;2023-05-24T10:29:31;99164.38;;;23.28;39.54
18275;BME280;19470;49.322;7.218;2023-05-24T10:32:02;99161.69;;;25.31;34.19
18275;BME280;19470;49.322;7.218;2023-05-24T10:34:29;99154.72;;;25.51;35.04
18275;BME280;19470;49.322;7.218;2023-05-24T10:36:57;99146.81;;;26.74;32.98
18275;BME280;19470;49.322;7.218;2023-05-24T10:39:24;99149.56;;;25.58;32.91
18275;BME280;19470;49.322;7.218;2023-05-24T10:41:54;99142.22;;;26.21;35.56
18275;BME280;19470;49.322;7.218;2023-05-24T10:44:21;99150.50;;;24.21;35.60
18275;BME280;19470;49.322;7.218;2023-05-24T10:47:09;99154.91;;;24.69;33.19
18275;BME280;19470;49.322;7.218;2023-05-24T10:49:36;99149.72;;;23.77;32.41
18275;BME280;19470;49.322;7.218;2023-05-24T10:52:07;99154.16;;;24.25;34.06
18275;BME280;19470;49.322;7.218;2023-05-24T10:54:34;99152.69;;;24.62;34.30
18275;BME280;19470;49.322;7.218;2023-05-24T10:57:03;99156.91;;;23.16;35.91
18275;BME280;19470;49.322;7.218;2023-05-24T10:59:33;99148.41;;;23.49;33.37
18275;BME280;19470;49.322;7.218;2023-05-24T11:02:03;99156.19;;;24.71;31.86
18275;BME280;19470;49.322;7.218;2023-05-24T11:04:34;99132.78;;;26.72;30.37
18275;BME280;19470;49.322;7.218;2023-05-24T11:07:03;99134.81;;;26.88;32.32
18275;BME280;19470;49.322;7.218;2023-05-24T11:09:31;99135.59;;;27.49;29.11
18275;BME280;19470;49.322;7.218;2023-05-24T11:12:00;99137.97;;;28.75;29.40
18275;BME280;19470;49.322;7.218;2023-05-24T11:14:33;99128.72;;;27.92;28.30
18275;BME280;19470;49.322;7.218;2023-05-24T11:17:01;99131.16;;;26.71;30.27
18275;BME280;19470;49.322;7.218;2023-05-24T11:19:33;99124.75;;;27.37;29.63
18275;BME280;19470;49.322;7.218;2023-05-24T11:22:01;99126.97;;;26.49;30.44
18275;BME280;19470;49.322;7.218;2023-05-24T11:24:28;99132.84;;;25.26;30.55
18275;BME280;19470;49.322;7.218;2023-05-24T11:26:56;99120.53;;;26.33;30.24
18275;BME280;19470;49.322;7.218;2023-05-24T11:29:23;99127.28;;;26.48;30.11
18275;BME280;19470;49.322;7.218;2023-05-24T11:31:50;99124.72;;;25.97;31.15
18275;BME280;19470;49.322;7.218;2023-05-24T11:34:17;99126.34;;;27.14;30.33
18275;BME280;19470;49.322;7.218;2023-05-24T11:36:45;99131.56;;;27.84;31.94
18275;BME280;19470;49.322;7.218;2023-05-24T11:39:12;99121.66;;;26.90;31.11
18275;BME280;19470;49.322;7.218;2023-05-24T11:41:39;99124.53;;;27.30;29.53
18275;BME280;19470;49.322;7.218;2023-05-24T11:44:07;99137.63;;;26.79;31.63
18275;BME280;19470;49.322;7.218;2023-05-24T11:46:34;99116.50;;;28.42;29.99
18275;BME280;19470;49.322;7.218;2023-05-24T11:49:03;99120.88;;;26.32;31.78
18275;BME280;19470;49.322;7.218;2023-05-24T11:51:32;99115.56;;;27.05;32.83
18275;BME280;19470;49.322;7.218;2023-05-24T11:54:00;99107.00;;;27.68;31.02
18275;BME280;19470;49.322;7.218;2023-05-24T11:56:28;99106.28;;;28.55;32.65
18275;BME280;19470;49.322;7.218;2023-05-24T11:59:02;99105.41;;;28.23;28.96
18275;BME280;19470;49.322;7.218;2023-05-24T12:01:31;99105.09;;;27.56;32.53
18275;BME280;19470;49.322;7.218;2023-05-24T12:03:57;99107.03;;;28.99;32.09
18275;BME280;19470;49.322;7.218;2023-05-24T12:06:32;99106.41;;;27.22;32.29
18275;BME280;19470;49.322;7.218;2023-05-24T12:09:00;99110.69;;;26.86;30.46
18275;BME280;19470;49.322;7.218;2023-05-24T12:11:29;99102.41;;;26.25;27.60
18275;BME280;19470;49.322;7.218;2023-05-24T12:13:56;99111.88;;;25.86;27.51
18275;BME280;19470;49.322;7.218;2023-05-24T12:16:23;99115.50;;;24.42;31.67
18275;BME280;19470;49.322;7.218;2023-05-24T12:18:51;99116.22;;;24.60;31.46
18275;BME280;19470;49.322;7.218;2023-05-24T12:21:17;99099.03;;;27.22;30.41
18275;BME280;19470;49.322;7.218;2023-05-24T12:23:46;99097.31;;;26.44;29.72
18275;BME280;19470;49.322;7.218;2023-05-24T12:26:17;99087.22;;;26.57;32.02
18275;BME280;19470;49.322;7.218;2023-05-24T12:28:44;99094.56;;;27.95;28.86
18275;BME280;19470;49.322;7.218;2023-05-24T12:31:10;99084.22;;;28.00;28.20
18275;BME280;19470;49.322;7.218;2023-05-24T12:33:37;99093.38;;;25.88;30.56
18275;BME280;19470;49.322;7.218;2023-05-24T12:36:04;99093.25;;;26.30;30.67
18275;BME280;19470;49.322;7.218;2023-05-24T12:38:30;99093.53;;;23.48;30.65
18275;BME280;19470;49.322;7.218;2023-05-24T12:40:59;99096.47;;;24.59;32.60
18275;BME280;19470;49.322;7.218;2023-05-24T12:43:28;99096.69;;;25.64;32.00
18275;BME280;19470;49.322;7.218;2023-05-24T12:45:54;99104.75;;;24.63;33.01
18275;BME280;19470;49.322;7.218;2023-05-24T12:48:21;99090.22;;;25.98;35.85
18275;BME280;19470;49.322;7.218;2023-05-24T12:50:47;99094.69;;;24.63;36.22
18275;BME280;19470;49.322;7.218;2023-05-24T12:53:15;99094.66;;;24.16;34.55
18275;BME280;19470;49.322;7.218;2023-05-24T12:55:43;99092.44;;;23.92;34.53
18275;BME280;19470;49.322;7.218;2023-05-24T12:58:09;99089.56;;;23.97;35.07
18275;BME280;19470;49.322;7.218;2023-05-24T13:00:41;99087.25;;;23.13;35.89